sensor_id;sensor_type;location;lat;lon;timestamp;P1;durP1;ratioP1;P2;durP2;ratioP2
68178;SDS011;54998;42.656;23.382;2022-12-18T00:02:20;7.68;;;4.07;;
68178;SDS011;54998;42.656;23.382;2022-12-18T00:04:47;7.32;;;4.05;;
68178;SDS011;54998;42.656;23.382;2022-12-18T00:07:12;7.30;;;3.97;;
68178;SDS011;54998;42.656;23.382;2022-12-18T00:09:37;7.00;;;3.65;;
68178;SDS011;54998;42.656;23.382;2022-12-18T00:12:03;5.35;;;3.17;;
68178;SDS011;54998;42.656;23.382;2022-12-18T00:14:29;5.32;;;3.20;;
68178;SDS011;54998;42.656;23.382;2022-12-18T00:16:54;8.55;;;4.22;;
68178;SDS011;54998;42.656;23.382;2022-12-18T00:19:19;8.07;;;4.05;;
68178;SDS011;54998;42.656;23.382;2022-12-18T00:21:45;9.48;;;4.30;;
68178;SDS011;54998;42.656;23.382;2022-12-18T00:24:11;9.15;;;4.82;;
68178;SDS011;54998;42.656;23.382;2022-12-18T00:26:37;10.13;;;4.60;;
68178;SDS011;54998;42.656;23.382;2022-12-18T00:29:05;6.65;;;3.10;;
68178;SDS011;54998;42.656;23.382;2022-12-18T00:31:34;9.30;;;4.35;;
68178;SDS011;54998;42.656;23.382;2022-12-18T00:34:00;8.88;;;4.57;;
68178;SDS011;54998;42.656;23.382;2022-12-18T00:36:26;8.23;;;3.92;;
68178;SDS011;54998;42.656;23.382;2022-12-18T00:38:54;6.75;;;4.00;;
68178;SDS011;54998;42.656;23.382;2022-12-18T00:41:21;7.95;;;4.15;;
68178;SDS011;54998;42.656;23.382;2022-12-18T00:44:06;6.03;;;3.25;;
68178;SDS011;54998;42.656;23.382;2022-12-18T00:46:34;10.77;;;4.78;;
68178;SDS011;54998;42.656;23.382;2022-12-18T00:48:59;10.93;;;4.93;;
68178;SDS011;54998;42.656;23.382;2022-12-18T00:51:25;8.90;;;4.45;;
68178;SDS011;54998;42.656;23.382;2022-12-18T00:53:51;9.75;;;4.68;;
68178;SDS011;54998;42.656;23.382;2022-12-18T00:56:17;8.60;;;4.15;;
68178;SDS011;54998;42.656;23.382;2022-12-18T00:58:48;7.60;;;3.25;;
68178;SDS011;54998;42.656;23.382;2022-12-18T01:01:13;8.30;;;4.20;;
68178;SDS011;54998;42.656;23.382;2022-12-18T01:03:39;3.85;;;2.65;;
68178;SDS011;54998;42.656;23.382;2022-12-18T01:06:08;9.75;;;4.05;;
68178;SDS011;54998;42.656;23.382;2022-12-18T01:08:37;6.75;;;3.78;;
68178;SDS011;54998;42.656;23.382;2022-12-18T01:11:13;7.43;;;3.55;;
68178;SDS011;54998;42.656;23.382;2022-12-18T01:13:49;7.00;;;4.00;;
68178;SDS011;54998;42.656;23.382;2022-12-18T01:16:15;9.23;;;4.57;;
68178;SDS011;54998;42.656;23.382;2022-12-18T01:18:41;7.70;;;3.67;;
68178;SDS011;54998;42.656;23.382;2022-12-18T01:21:08;6.30;;;3.10;;
68178;SDS011;54998;42.656;23.382;2022-12-18T01:23:35;8.10;;;3.63;;
68178;SDS011;54998;42.656;23.382;2022-12-18T01:26:04;7.28;;;4.03;;
68178;SDS011;54998;42.656;23.382;2022-12-18T01:28:33;10.43;;;4.05;;
68178;SDS011;54998;42.656;23.382;2022-12-18T01:33:56;9.25;;;4.45;;
68178;SDS011;54998;42.656;23.382;2022-12-18T01:38:54;11.35;;;5.47;;
68178;SDS011;54998;42.656;23.382;2022-12-18T01:41:25;8.50;;;4.47;;
68178;SDS011;54998;42.656;23.382;2022-12-18T01:48:16;8.98;;;4.45;;
68178;SDS011;54998;42.656;23.382;2022-12-18T01:55:29;8.43;;;4.15;;
68178;SDS011;54998;42.656;23.382;2022-12-18T01:57:57;9.52;;;4.32;;
68178;SDS011;54998;42.656;23.382;2022-12-18T02:02:50;9.68;;;5.07;;
68178;SDS011;54998;42.656;23.382;2022-12-18T02:05:17;10.40;;;5.32;;
68178;SDS011;54998;42.656;23.382;2022-12-18T02:07:58;9.00;;;4.63;;
68178;SDS011;54998;42.656;23.382;2022-12-18T02:18:45;9.68;;;4.75;;
68178;SDS011;54998;42.656;23.382;2022-12-18T02:21:22;7.85;;;4.50;;
68178;SDS011;54998;42.656;23.382;2022-12-18T02:25:00;7.28;;;3.50;;
68178;SDS011;54998;42.656;23.382;2022-12-18T02:26:57;6.10;;;3.17;;
68178;SDS011;54998;42.656;23.382;2022-12-18T02:29:31;9.65;;;4.65;;
68178;SDS011;54998;42.656;23.382;2022-12-18T02:32:02;8.07;;;4.20;;
68178;SDS011;54998;42.656;23.382;2022-12-18T02:34:33;6.97;;;3.90;;
68178;SDS011;54998;42.656;23.382;2022-12-18T02:37:03;8.15;;;4.38;;
68178;SDS011;54998;42.656;23.382;2022-12-18T02:39:33;7.43;;;3.85;;
68178;SDS011;54998;42.656;23.382;2022-12-18T02:42:00;8.30;;;4.32;;
68178;SDS011;54998;42.656;23.382;2022-12-18T02:44:33;8.50;;;4.45;;
68178;SDS011;54998;42.656;23.382;2022-12-18T02:47:00;7.22;;;3.72;;
68178;SDS011;54998;42.656;23.382;2022-12-18T02:52:26;5.15;;;3.33;;
68178;SDS011;54998;42.656;23.382;2022-12-18T02:55:15;6.72;;;3.60;;
68178;SDS011;54998;42.656;23.382;2022-12-18T02:57:55;9.55;;;4.38;;
68178;SDS011;54998;42.656;23.382;2022-12-18T03:00:29;6.82;;;4.00;;
68178;SDS011;54998;42.656;23.382;2022-12-18T03:03:03;6.65;;;3.50;;
68178;SDS011;54998;42.656;23.382;2022-12-18T03:05:50;8.13;;;3.53;;
68178;SDS011;54998;42.656;23.382;2022-12-18T03:08:20;8.02;;;3.50;;
68178;SDS011;54998;42.656;23.382;2022-12-18T03:10:53;9.57;;;5.32;;
68178;SDS011;54998;42.656;23.382;2022-12-18T03:13:26;8.23;;;3.80;;
68178;SDS011;54998;42.656;23.382;2022-12-18T03:15:55;9.75;;;5.80;;
68178;SDS011;54998;42.656;23.382;2022-12-18T03:18:33;12.50;;;6.05;;
68178;SDS011;54998;42.656;23.382;2022-12-18T03:21:03;7.72;;;4.05;;
68178;SDS011;54998;42.656;23.382;2022-12-18T03:23:40;7.75;;;4.13;;
68178;SDS011;54998;42.656;23.382;2022-12-18T03:26:14;10.55;;;5.03;;
68178;SDS011;54998;42.656;23.382;2022-12-18T03:28:42;7.10;;;3.75;;
68178;SDS011;54998;42.656;23.382;2022-12-18T03:31:12;7.78;;;3.78;;
68178;SDS011;54998;42.656;23.382;2022-12-18T03:33:41;10.38;;;5.13;;
68178;SDS011;54998;42.656;23.382;2022-12-18T03:36:11;7.75;;;4.35;;
68178;SDS011;54998;42.656;23.382;2022-12-18T03:38:37;8.40;;;3.00;;
68178;SDS011;54998;42.656;23.382;2022-12-18T03:41:51;9.07;;;4.40;;
68178;SDS011;54998;42.656;23.382;2022-12-18T03:46:41;8.85;;;4.80;;
68178;SDS011;54998;42.656;23.382;2022-12-18T03:49:09;8.43;;;4.22;;
68178;SDS011;54998;42.656;23.382;2022-12-18T03:51:58;9.10;;;4.45;;
68178;SDS011;54998;42.656;23.382;2022-12-18T03:54:28;11.82;;;5.88;;
68178;SDS011;54998;42.656;23.382;2022-12-18T03:57:00;11.45;;;4.95;;
68178;SDS011;54998;42.656;23.382;2022-12-18T03:59:29;9.32;;;4.88;;
68178;SDS011;54998;42.656;23.382;2022-12-18T04:01:56;7.68;;;3.83;;
68178;SDS011;54998;42.656;23.382;2022-12-18T04:04:24;11.60;;;4.57;;
68178;SDS011;54998;42.656;23.382;2022-12-18T04:06:52;9.15;;;4.70;;
68178;SDS011;54998;42.656;23.382;2022-12-18T04:09:19;8.15;;;3.45;;
68178;SDS011;54998;42.656;23.382;2022-12-18T04:11:45;8.88;;;4.30;;
68178;SDS011;54998;42.656;23.382;2022-12-18T04:14:12;9.27;;;4.38;;
68178;SDS011;54998;42.656;23.382;2022-12-18T04:16:37;7.95;;;4.47;;
68178;SDS011;54998;42.656;23.382;2022-12-18T04:19:03;15.30;;;5.68;;
68178;SDS011;54998;42.656;23.382;2022-12-18T04:21:28;10.68;;;4.78;;
68178;SDS011;54998;42.656;23.382;2022-12-18T04:23:54;10.25;;;5.53;;
68178;SDS011;54998;42.656;23.382;2022-12-18T04:26:19;10.88;;;4.30;;
68178;SDS011;54998;42.656;23.382;2022-12-18T04:28:45;7.22;;;4.55;;
68178;SDS011;54998;42.656;23.382;2022-12-18T04:31:10;6.72;;;3.75;;
68178;SDS011;54998;42.656;23.382;2022-12-18T04:33:36;6.82;;;3.95;;
68178;SDS011;54998;42.656;23.382;2022-12-18T04:36:01;12.95;;;5.03;;
68178;SDS011;54998;42.656;23.382;2022-12-18T04:38:27;7.93;;;4.15;;
68178;SDS011;54998;42.656;23.382;2022-12-18T04:40:53;10.32;;;4.68;;
68178;SDS011;54998;42.656;23.382;2022-12-18T04:43:18;10.32;;;5.22;;
68178;SDS011;54998;42.656;23.382;2022-12-18T04:45:43;9.63;;;4.63;;
68178;SDS011;54998;42.656;23.382;2022-12-18T04:48:09;10.90;;;5.35;;
68178;SDS011;54998;42.656;23.382;2022-12-18T04:50:34;11.50;;;5.70;;
68178;SDS011;54998;42.656;23.382;2022-12-18T04:52:59;8.85;;;4.20;;
68178;SDS011;54998;42.656;23.382;2022-12-18T04:55:25;12.02;;;6.30;;
68178;SDS011;54998;42.656;23.382;2022-12-18T04:57:51;10.82;;;5.93;;
68178;SDS011;54998;42.656;23.382;2022-12-18T05:00:17;10.75;;;4.35;;
68178;SDS011;54998;42.656;23.382;2022-12-18T05:02:43;10.95;;;4.90;;
68178;SDS011;54998;42.656;23.382;2022-12-18T05:05:08;13.77;;;6.10;;
68178;SDS011;54998;42.656;23.382;2022-12-18T05:07:34;15.07;;;6.75;;
68178;SDS011;54998;42.656;23.382;2022-12-18T05:10:00;14.73;;;6.60;;
68178;SDS011;54998;42.656;23.382;2022-12-18T05:12:26;13.57;;;5.97;;
68178;SDS011;54998;42.656;23.382;2022-12-18T05:14:51;14.63;;;6.22;;
68178;SDS011;54998;42.656;23.382;2022-12-18T05:17:17;11.05;;;5.80;;
68178;SDS011;54998;42.656;23.382;2022-12-18T05:19:42;15.63;;;6.25;;
68178;SDS011;54998;42.656;23.382;2022-12-18T05:22:08;19.60;;;7.55;;
68178;SDS011;54998;42.656;23.382;2022-12-18T05:24:34;14.32;;;6.50;;
68178;SDS011;54998;42.656;23.382;2022-12-18T05:27:00;11.15;;;6.03;;
68178;SDS011;54998;42.656;23.382;2022-12-18T05:29:26;13.43;;;5.30;;
68178;SDS011;54998;42.656;23.382;2022-12-18T05:31:51;16.55;;;7.20;;
68178;SDS011;54998;42.656;23.382;2022-12-18T05:34:17;11.27;;;5.13;;
68178;SDS011;54998;42.656;23.382;2022-12-18T05:36:42;12.88;;;5.82;;
68178;SDS011;54998;42.656;23.382;2022-12-18T05:39:08;15.63;;;6.68;;
68178;SDS011;54998;42.656;23.382;2022-12-18T05:41:33;14.90;;;7.03;;
68178;SDS011;54998;42.656;23.382;2022-12-18T05:43:59;14.30;;;7.80;;
68178;SDS011;54998;42.656;23.382;2022-12-18T05:46:24;14.65;;;7.57;;
68178;SDS011;54998;42.656;23.382;2022-12-18T05:48:50;8.68;;;3.97;;
68178;SDS011;54998;42.656;23.382;2022-12-18T05:51:16;15.45;;;6.00;;
68178;SDS011;54998;42.656;23.382;2022-12-18T05:53:43;14.20;;;6.25;;
68178;SDS011;54998;42.656;23.382;2022-12-18T05:56:11;10.10;;;4.85;;
68178;SDS011;54998;42.656;23.382;2022-12-18T05:58:39;14.40;;;5.82;;
68178;SDS011;54998;42.656;23.382;2022-12-18T06:01:09;11.73;;;5.05;;
68178;SDS011;54998;42.656;23.382;2022-12-18T06:03:38;12.85;;;5.43;;
68178;SDS011;54998;42.656;23.382;2022-12-18T06:06:03;13.35;;;5.18;;
68178;SDS011;54998;42.656;23.382;2022-12-18T06:08:29;15.70;;;5.93;;
68178;SDS011;54998;42.656;23.382;2022-12-18T06:10:54;11.40;;;6.55;;
68178;SDS011;54998;42.656;23.382;2022-12-18T06:13:20;12.82;;;5.47;;
68178;SDS011;54998;42.656;23.382;2022-12-18T06:15:46;10.40;;;5.03;;
68178;SDS011;54998;42.656;23.382;2022-12-18T06:18:11;13.10;;;6.85;;
68178;SDS011;54998;42.656;23.382;2022-12-18T06:20:37;11.38;;;4.78;;
68178;SDS011;54998;42.656;23.382;2022-12-18T06:23:04;10.82;;;4.93;;
68178;SDS011;54998;42.656;23.382;2022-12-18T06:25:31;16.90;;;6.63;;
68178;SDS011;54998;42.656;23.382;2022-12-18T06:27:57;12.23;;;6.05;;
68178;SDS011;54998;42.656;23.382;2022-12-18T06:30:22;16.30;;;6.30;;
68178;SDS011;54998;42.656;23.382;2022-12-18T06:32:48;11.23;;;5.20;;
68178;SDS011;54998;42.656;23.382;2022-12-18T06:35:14;13.55;;;5.93;;
68178;SDS011;54998;42.656;23.382;2022-12-18T06:37:39;12.30;;;6.40;;
68178;SDS011;54998;42.656;23.382;2022-12-18T06:40:05;15.65;;;7.38;;
68178;SDS011;54998;42.656;23.382;2022-12-18T06:42:31;12.98;;;6.20;;
68178;SDS011;54998;42.656;23.382;2022-12-18T06:44:57;18.98;;;7.43;;
68178;SDS011;54998;42.656;23.382;2022-12-18T06:47:22;13.60;;;5.90;;
68178;SDS011;54998;42.656;23.382;2022-12-18T06:49:48;13.52;;;5.43;;
68178;SDS011;54998;42.656;23.382;2022-12-18T06:52:13;18.63;;;7.60;;
68178;SDS011;54998;42.656;23.382;2022-12-18T06:54:39;8.93;;;4.78;;
68178;SDS011;54998;42.656;23.382;2022-12-18T06:57:04;18.02;;;7.40;;
68178;SDS011;54998;42.656;23.382;2022-12-18T06:59:30;14.50;;;5.90;;
68178;SDS011;54998;42.656;23.382;2022-12-18T07:01:55;10.63;;;6.38;;
68178;SDS011;54998;42.656;23.382;2022-12-18T07:04:20;13.02;;;6.15;;
68178;SDS011;54998;42.656;23.382;2022-12-18T07:06:46;13.98;;;6.30;;
68178;SDS011;54998;42.656;23.382;2022-12-18T07:09:11;12.30;;;5.05;;
68178;SDS011;54998;42.656;23.382;2022-12-18T07:11:37;16.88;;;7.18;;
68178;SDS011;54998;42.656;23.382;2022-12-18T07:14:02;18.33;;;6.97;;
68178;SDS011;54998;42.656;23.382;2022-12-18T07:16:27;13.80;;;6.35;;
68178;SDS011;54998;42.656;23.382;2022-12-18T07:18:56;17.45;;;7.57;;
68178;SDS011;54998;42.656;23.382;2022-12-18T07:21:22;13.85;;;6.53;;
68178;SDS011;54998;42.656;23.382;2022-12-18T07:23:48;18.80;;;7.30;;
68178;SDS011;54998;42.656;23.382;2022-12-18T07:26:15;16.55;;;5.28;;
68178;SDS011;54998;42.656;23.382;2022-12-18T07:28:42;14.82;;;6.95;;
68178;SDS011;54998;42.656;23.382;2022-12-18T07:31:10;11.57;;;5.38;;
68178;SDS011;54998;42.656;23.382;2022-12-18T07:33:37;18.20;;;7.72;;
68178;SDS011;54998;42.656;23.382;2022-12-18T07:36:04;18.17;;;8.25;;
68178;SDS011;54998;42.656;23.382;2022-12-18T07:38:31;14.45;;;6.82;;
68178;SDS011;54998;42.656;23.382;2022-12-18T07:41:02;19.35;;;9.05;;
68178;SDS011;54998;42.656;23.382;2022-12-18T07:43:28;13.65;;;7.05;;
68178;SDS011;54998;42.656;23.382;2022-12-18T07:45:54;18.33;;;8.43;;
68178;SDS011;54998;42.656;23.382;2022-12-18T07:48:19;14.65;;;6.25;;
68178;SDS011;54998;42.656;23.382;2022-12-18T07:50:45;21.30;;;8.63;;
68178;SDS011;54998;42.656;23.382;2022-12-18T07:53:13;22.33;;;8.88;;
68178;SDS011;54998;42.656;23.382;2022-12-18T07:55:39;18.85;;;7.68;;
68178;SDS011;54998;42.656;23.382;2022-12-18T07:58:06;18.42;;;7.30;;
68178;SDS011;54998;42.656;23.382;2022-12-18T08:00:32;20.50;;;8.07;;
68178;SDS011;54998;42.656;23.382;2022-12-18T08:02:58;22.33;;;8.82;;
68178;SDS011;54998;42.656;23.382;2022-12-18T08:05:24;15.75;;;7.78;;
68178;SDS011;54998;42.656;23.382;2022-12-18T08:07:49;19.75;;;8.38;;
68178;SDS011;54998;42.656;23.382;2022-12-18T08:10:15;21.80;;;9.50;;
68178;SDS011;54998;42.656;23.382;2022-12-18T08:12:40;20.92;;;8.75;;
68178;SDS011;54998;42.656;23.382;2022-12-18T08:15:06;23.30;;;10.05;;
68178;SDS011;54998;42.656;23.382;2022-12-18T08:17:32;29.05;;;11.90;;
68178;SDS011;54998;42.656;23.382;2022-12-18T08:19:58;17.23;;;6.70;;
68178;SDS011;54998;42.656;23.382;2022-12-18T08:22:23;21.83;;;9.65;;
68178;SDS011;54998;42.656;23.382;2022-12-18T08:24:48;19.10;;;8.45;;
68178;SDS011;54998;42.656;23.382;2022-12-18T08:27:14;19.17;;;8.73;;
68178;SDS011;54998;42.656;23.382;2022-12-18T08:29:39;19.45;;;9.00;;
68178;SDS011;54998;42.656;23.382;2022-12-18T08:32:04;21.60;;;10.75;;
68178;SDS011;54998;42.656;23.382;2022-12-18T08:34:30;20.45;;;7.82;;
68178;SDS011;54998;42.656;23.382;2022-12-18T08:36:55;33.90;;;13.63;;
68178;SDS011;54998;42.656;23.382;2022-12-18T08:39:21;17.50;;;7.40;;
68178;SDS011;54998;42.656;23.382;2022-12-18T08:41:46;21.95;;;9.45;;
68178;SDS011;54998;42.656;23.382;2022-12-18T08:44:32;18.80;;;8.65;;
68178;SDS011;54998;42.656;23.382;2022-12-18T08:47:03;22.35;;;8.63;;
68178;SDS011;54998;42.656;23.382;2022-12-18T08:49:29;18.63;;;6.10;;
68178;SDS011;54998;42.656;23.382;2022-12-18T08:51:55;37.50;;;13.48;;
68178;SDS011;54998;42.656;23.382;2022-12-18T08:54:24;19.42;;;8.60;;
68178;SDS011;54998;42.656;23.382;2022-12-18T08:56:50;22.27;;;9.75;;
68178;SDS011;54998;42.656;23.382;2022-12-18T08:59:16;21.92;;;9.05;;
68178;SDS011;54998;42.656;23.382;2022-12-18T09:01:42;20.65;;;8.50;;
68178;SDS011;54998;42.656;23.382;2022-12-18T09:04:08;12.15;;;5.82;;
68178;SDS011;54998;42.656;23.382;2022-12-18T09:06:34;25.77;;;9.88;;
68178;SDS011;54998;42.656;23.382;2022-12-18T09:09:00;23.35;;;9.23;;
68178;SDS011;54998;42.656;23.382;2022-12-18T09:11:27;21.63;;;8.05;;
68178;SDS011;54998;42.656;23.382;2022-12-18T09:13:53;20.63;;;8.00;;
68178;SDS011;54998;42.656;23.382;2022-12-18T09:16:20;22.52;;;8.20;;
68178;SDS011;54998;42.656;23.382;2022-12-18T09:18:47;13.65;;;7.40;;
68178;SDS011;54998;42.656;23.382;2022-12-18T09:21:14;15.20;;;7.95;;
68178;SDS011;54998;42.656;23.382;2022-12-18T09:23:41;17.40;;;7.45;;
68178;SDS011;54998;42.656;23.382;2022-12-18T09:26:06;15.50;;;6.13;;
68178;SDS011;54998;42.656;23.382;2022-12-18T09:28:32;20.05;;;8.23;;
68178;SDS011;54998;42.656;23.382;2022-12-18T09:30:57;14.20;;;5.97;;
68178;SDS011;54998;42.656;23.382;2022-12-18T09:33:23;15.48;;;5.80;;
68178;SDS011;54998;42.656;23.382;2022-12-18T09:35:49;17.73;;;7.28;;
68178;SDS011;54998;42.656;23.382;2022-12-18T09:38:15;23.13;;;10.02;;
68178;SDS011;54998;42.656;23.382;2022-12-18T09:40:52;20.42;;;9.45;;
68178;SDS011;54998;42.656;23.382;2022-12-18T09:43:28;19.40;;;8.05;;
68178;SDS011;54998;42.656;23.382;2022-12-18T09:48:57;18.92;;;6.88;;
68178;SDS011;54998;42.656;23.382;2022-12-18T09:53:55;12.05;;;5.53;;
68178;SDS011;54998;42.656;23.382;2022-12-18T09:56:26;15.90;;;6.78;;
68178;SDS011;54998;42.656;23.382;2022-12-18T09:59:00;19.48;;;8.32;;
68178;SDS011;54998;42.656;23.382;2022-12-18T10:01:27;16.50;;;6.00;;
68178;SDS011;54998;42.656;23.382;2022-12-18T10:03:54;14.38;;;5.97;;
68178;SDS011;54998;42.656;23.382;2022-12-18T10:06:23;17.25;;;7.22;;
68178;SDS011;54998;42.656;23.382;2022-12-18T10:19:59;12.45;;;4.78;;
68178;SDS011;54998;42.656;23.382;2022-12-18T10:22:38;14.43;;;6.88;;
68178;SDS011;54998;42.656;23.382;2022-12-18T10:27:55;20.25;;;8.05;;
68178;SDS011;54998;42.656;23.382;2022-12-18T10:30:25;19.23;;;8.15;;
68178;SDS011;54998;42.656;23.382;2022-12-18T10:32:51;16.52;;;7.10;;
68178;SDS011;54998;42.656;23.382;2022-12-18T10:35:18;22.50;;;9.05;;
68178;SDS011;54998;42.656;23.382;2022-12-18T10:38:02;19.15;;;8.45;;
68178;SDS011;54998;42.656;23.382;2022-12-18T10:40:28;13.40;;;6.53;;
68178;SDS011;54998;42.656;23.382;2022-12-18T10:43:04;19.65;;;9.77;;
68178;SDS011;54998;42.656;23.382;2022-12-18T10:45:29;10.55;;;5.53;;
68178;SDS011;54998;42.656;23.382;2022-12-18T10:47:55;19.00;;;8.43;;
68178;SDS011;54998;42.656;23.382;2022-12-18T10:52:55;17.30;;;6.82;;
68178;SDS011;54998;42.656;23.382;2022-12-18T10:55:22;21.25;;;9.05;;
68178;SDS011;54998;42.656;23.382;2022-12-18T10:57:52;20.05;;;8.68;;
68178;SDS011;54998;42.656;23.382;2022-12-18T11:00:25;19.58;;;7.88;;
68178;SDS011;54998;42.656;23.382;2022-12-18T11:02:53;16.92;;;7.38;;
68178;SDS011;54998;42.656;23.382;2022-12-18T11:05:23;13.95;;;6.05;;
68178;SDS011;54998;42.656;23.382;2022-12-18T11:07:51;20.67;;;7.85;;
68178;SDS011;54998;42.656;23.382;2022-12-18T11:10:19;18.58;;;8.10;;
68178;SDS011;54998;42.656;23.382;2022-12-18T11:12:47;20.35;;;8.63;;
68178;SDS011;54998;42.656;23.382;2022-12-18T11:15:24;18.95;;;8.07;;
68178;SDS011;54998;42.656;23.382;2022-12-18T11:17:53;24.35;;;10.73;;
68178;SDS011;54998;42.656;23.382;2022-12-18T11:20:20;24.45;;;9.70;;
68178;SDS011;54998;42.656;23.382;2022-12-18T11:23:01;18.23;;;7.70;;
68178;SDS011;54998;42.656;23.382;2022-12-18T11:25:35;17.45;;;7.53;;
68178;SDS011;54998;42.656;23.382;2022-12-18T11:30:49;19.90;;;8.88;;
68178;SDS011;54998;42.656;23.382;2022-12-18T11:33:46;17.67;;;6.75;;
68178;SDS011;54998;42.656;23.382;2022-12-18T11:36:16;16.70;;;7.43;;
68178;SDS011;54998;42.656;23.382;2022-12-18T11:38:42;16.27;;;6.88;;
68178;SDS011;54998;42.656;23.382;2022-12-18T11:41:45;12.30;;;5.63;;
68178;SDS011;54998;42.656;23.382;2022-12-18T11:44:49;16.50;;;7.90;;
68178;SDS011;54998;42.656;23.382;2022-12-18T11:47:37;18.38;;;8.27;;
68178;SDS011;54998;42.656;23.382;2022-12-18T11:50:20;16.10;;;7.43;;
68178;SDS011;54998;42.656;23.382;2022-12-18T11:52:49;17.75;;;7.50;;
68178;SDS011;54998;42.656;23.382;2022-12-18T11:55:25;19.98;;;8.52;;
68178;SDS011;54998;42.656;23.382;2022-12-18T12:01:03;12.15;;;5.35;;
68178;SDS011;54998;42.656;23.382;2022-12-18T12:21:28;23.80;;;9.10;;
68178;SDS011;54998;42.656;23.382;2022-12-18T12:38:13;15.73;;;6.00;;
68178;SDS011;54998;42.656;23.382;2022-12-18T12:40:46;14.27;;;6.32;;
68178;SDS011;54998;42.656;23.382;2022-12-18T12:46:10;17.75;;;7.55;;
68178;SDS011;54998;42.656;23.382;2022-12-18T12:48:58;14.35;;;6.35;;
68178;SDS011;54998;42.656;23.382;2022-12-18T12:53:59;20.63;;;9.02;;
68178;SDS011;54998;42.656;23.382;2022-12-18T12:56:37;14.80;;;5.95;;
68178;SDS011;54998;42.656;23.382;2022-12-18T13:04:36;14.38;;;6.18;;
68178;SDS011;54998;42.656;23.382;2022-12-18T13:07:13;18.48;;;7.35;;
68178;SDS011;54998;42.656;23.382;2022-12-18T13:18:04;17.98;;;7.35;;
68178;SDS011;54998;42.656;23.382;2022-12-18T13:20:50;17.55;;;7.55;;
68178;SDS011;54998;42.656;23.382;2022-12-18T13:28:22;19.30;;;8.13;;
68178;SDS011;54998;42.656;23.382;2022-12-18T13:31:08;18.70;;;8.57;;
68178;SDS011;54998;42.656;23.382;2022-12-18T13:33:52;20.70;;;9.45;;
68178;SDS011;54998;42.656;23.382;2022-12-18T13:36:40;23.42;;;8.90;;
68178;SDS011;54998;42.656;23.382;2022-12-18T13:39:08;22.33;;;8.07;;
68178;SDS011;54998;42.656;23.382;2022-12-18T13:41:47;19.77;;;4.60;;
68178;SDS011;54998;42.656;23.382;2022-12-18T13:44:58;18.25;;;8.52;;
68178;SDS011;54998;42.656;23.382;2022-12-18T13:47:33;20.45;;;8.57;;
68178;SDS011;54998;42.656;23.382;2022-12-18T13:50:09;23.42;;;10.38;;
68178;SDS011;54998;42.656;23.382;2022-12-18T13:52:40;19.20;;;8.38;;
68178;SDS011;54998;42.656;23.382;2022-12-18T13:55:15;23.85;;;10.93;;
68178;SDS011;54998;42.656;23.382;2022-12-18T13:57:43;21.05;;;9.27;;
68178;SDS011;54998;42.656;23.382;2022-12-18T14:00:16;20.98;;;8.13;;
68178;SDS011;54998;42.656;23.382;2022-12-18T14:02:50;21.00;;;8.73;;
68178;SDS011;54998;42.656;23.382;2022-12-18T14:05:32;21.05;;;9.60;;
68178;SDS011;54998;42.656;23.382;2022-12-18T14:08:11;24.02;;;9.00;;
68178;SDS011;54998;42.656;23.382;2022-12-18T14:10:40;17.00;;;7.70;;
68178;SDS011;54998;42.656;23.382;2022-12-18T14:13:08;24.00;;;9.70;;
68178;SDS011;54998;42.656;23.382;2022-12-18T14:15:42;21.77;;;9.32;;
68178;SDS011;54998;42.656;23.382;2022-12-18T14:20:46;23.35;;;9.10;;
68178;SDS011;54998;42.656;23.382;2022-12-18T14:35:41;19.08;;;8.85;;
68178;SDS011;54998;42.656;23.382;2022-12-18T14:38:24;19.90;;;8.82;;
68178;SDS011;54998;42.656;23.382;2022-12-18T14:41:04;20.13;;;7.35;;
68178;SDS011;54998;42.656;23.382;2022-12-18T14:43:35;15.95;;;7.63;;
68178;SDS011;54998;42.656;23.382;2022-12-18T14:46:19;16.60;;;7.68;;
68178;SDS011;54998;42.656;23.382;2022-12-18T14:48:50;14.07;;;5.72;;
68178;SDS011;54998;42.656;23.382;2022-12-18T14:51:17;19.92;;;8.52;;
68178;SDS011;54998;42.656;23.382;2022-12-18T14:53:53;19.63;;;8.02;;
68178;SDS011;54998;42.656;23.382;2022-12-18T14:56:21;15.85;;;6.68;;
68178;SDS011;54998;42.656;23.382;2022-12-18T14:58:49;14.63;;;6.35;;
68178;SDS011;54998;42.656;23.382;2022-12-18T15:01:25;19.33;;;8.18;;
68178;SDS011;54998;42.656;23.382;2022-12-18T15:04:00;13.90;;;5.68;;
68178;SDS011;54998;42.656;23.382;2022-12-18T15:06:28;18.42;;;7.20;;
68178;SDS011;54998;42.656;23.382;2022-12-18T15:09:20;11.27;;;5.30;;
68178;SDS011;54998;42.656;23.382;2022-12-18T15:11:49;19.40;;;8.23;;
68178;SDS011;54998;42.656;23.382;2022-12-18T15:14:22;21.02;;;8.32;;
68178;SDS011;54998;42.656;23.382;2022-12-18T15:17:19;18.40;;;8.02;;
68178;SDS011;54998;42.656;23.382;2022-12-18T15:19:48;19.23;;;8.15;;
68178;SDS011;54998;42.656;23.382;2022-12-18T15:22:22;20.52;;;8.23;;
68178;SDS011;54998;42.656;23.382;2022-12-18T15:24:54;20.67;;;7.75;;
68178;SDS011;54998;42.656;23.382;2022-12-18T15:27:24;18.52;;;6.88;;
68178;SDS011;54998;42.656;23.382;2022-12-18T15:32:35;20.50;;;8.52;;
68178;SDS011;54998;42.656;23.382;2022-12-18T15:37:36;14.00;;;6.22;;
68178;SDS011;54998;42.656;23.382;2022-12-18T15:40:02;20.20;;;8.40;;
68178;SDS011;54998;42.656;23.382;2022-12-18T15:42:29;17.45;;;7.72;;
68178;SDS011;54998;42.656;23.382;2022-12-18T15:45:13;19.67;;;8.93;;
68178;SDS011;54998;42.656;23.382;2022-12-18T15:47:41;15.93;;;6.30;;
68178;SDS011;54998;42.656;23.382;2022-12-18T15:50:10;15.73;;;7.10;;
68178;SDS011;54998;42.656;23.382;2022-12-18T15:52:41;14.82;;;6.43;;
68178;SDS011;54998;42.656;23.382;2022-12-18T15:55:12;11.75;;;5.53;;
68178;SDS011;54998;42.656;23.382;2022-12-18T15:57:57;18.92;;;7.05;;
68178;SDS011;54998;42.656;23.382;2022-12-18T16:00:23;12.95;;;5.55;;
68178;SDS011;54998;42.656;23.382;2022-12-18T16:02:49;17.33;;;7.97;;
68178;SDS011;54998;42.656;23.382;2022-12-18T16:05:15;12.50;;;5.20;;
68178;SDS011;54998;42.656;23.382;2022-12-18T16:07:42;18.80;;;7.78;;
68178;SDS011;54998;42.656;23.382;2022-12-18T16:10:08;26.00;;;9.20;;
68178;SDS011;54998;42.656;23.382;2022-12-18T16:12:41;16.77;;;6.82;;
68178;SDS011;54998;42.656;23.382;2022-12-18T16:15:10;17.33;;;7.38;;
68178;SDS011;54998;42.656;23.382;2022-12-18T16:17:41;19.63;;;8.15;;
68178;SDS011;54998;42.656;23.382;2022-12-18T16:20:14;21.42;;;8.70;;
68178;SDS011;54998;42.656;23.382;2022-12-18T16:22:42;19.80;;;8.15;;
68178;SDS011;54998;42.656;23.382;2022-12-18T16:25:21;21.80;;;9.55;;
68178;SDS011;54998;42.656;23.382;2022-12-18T16:27:48;15.90;;;7.85;;
68178;SDS011;54998;42.656;23.382;2022-12-18T16:30:15;17.48;;;7.35;;
68178;SDS011;54998;42.656;23.382;2022-12-18T16:32:41;21.48;;;8.82;;
68178;SDS011;54998;42.656;23.382;2022-12-18T16:35:08;17.35;;;6.60;;
68178;SDS011;54998;42.656;23.382;2022-12-18T16:37:34;24.17;;;8.75;;
68178;SDS011;54998;42.656;23.382;2022-12-18T16:40:00;26.40;;;9.02;;
68178;SDS011;54998;42.656;23.382;2022-12-18T16:42:25;20.20;;;8.52;;
68178;SDS011;54998;42.656;23.382;2022-12-18T16:44:51;22.63;;;9.27;;
68178;SDS011;54998;42.656;23.382;2022-12-18T16:47:16;30.15;;;11.98;;
68178;SDS011;54998;42.656;23.382;2022-12-18T16:49:43;15.10;;;6.65;;
68178;SDS011;54998;42.656;23.382;2022-12-18T16:52:15;20.70;;;7.80;;
68178;SDS011;54998;42.656;23.382;2022-12-18T16:54:41;18.42;;;7.40;;